Terminal Aerodrome Forecast
Issued by NWS

Home | Current Version | Previous Version | Text Only | Print | Product List | Glossary On
Versions: 1 2 3 4 5 6 7 8 9 10 11 12 13 14 15 16
000
FTUS42 KTBW 061739
TAFPGD
TAF
KPGD 061739Z 0618/0718 03007KT P6SM SCT030 SCT250
     FM062000 30010KT P6SM VCSH SCT050 SCT250
     FM070100 35006KT P6SM SCT250
     FM070300 VRB04KT P6SM SCT250
     FM071200 VRB05KT P6SM FEW250=

USA.gov is the U.S. government's official web portal to all federal, state and local government web resources and services.